馬祖南竿航空站 - ATIS

METAR RCFG 161100Z 05009KT 020V080 9999 FEW015 BKN035 15/12 Q1022 NOSIG RMK MAX WND 15KT 04013KT/R21 05014KT/NJL A3019(S)=

站台狀態:Online
最後更新:2018-12-16 23:15:02